sensor_id;sensor_type;location;lat;lon;timestamp;P1;durP1;ratioP1;P2;durP2;ratioP2
33076;SDS011;38790;51.964;5.924;2022-07-09T00:02:01;15.32;;;6.72;;
33076;SDS011;38790;51.964;5.924;2022-07-09T00:04:27;16.13;;;8.07;;
33076;SDS011;38790;51.964;5.924;2022-07-09T00:06:53;14.88;;;6.65;;
33076;SDS011;38790;51.964;5.924;2022-07-09T00:09:19;13.40;;;6.75;;
33076;SDS011;38790;51.964;5.924;2022-07-09T00:11:46;12.13;;;6.50;;
33076;SDS011;38790;51.964;5.924;2022-07-09T00:14:12;17.48;;;7.18;;
33076;SDS011;38790;51.964;5.924;2022-07-09T00:16:38;17.55;;;7.43;;
33076;SDS011;38790;51.964;5.924;2022-07-09T00:19:04;14.95;;;7.13;;
33076;SDS011;38790;51.964;5.924;2022-07-09T00:21:30;12.05;;;6.70;;
33076;SDS011;38790;51.964;5.924;2022-07-09T00:23:56;14.73;;;6.45;;
33076;SDS011;38790;51.964;5.924;2022-07-09T00:26:22;14.05;;;7.80;;
33076;SDS011;38790;51.964;5.924;2022-07-09T00:28:48;12.80;;;6.93;;
33076;SDS011;38790;51.964;5.924;2022-07-09T00:31:14;14.48;;;7.05;;
33076;SDS011;38790;51.964;5.924;2022-07-09T00:33:41;12.18;;;7.45;;
33076;SDS011;38790;51.964;5.924;2022-07-09T00:36:07;10.40;;;6.53;;
33076;SDS011;38790;51.964;5.924;2022-07-09T00:38:33;24.35;;;7.82;;
33076;SDS011;38790;51.964;5.924;2022-07-09T00:40:59;19.95;;;7.38;;
33076;SDS011;38790;51.964;5.924;2022-07-09T00:43:25;10.27;;;7.40;;
33076;SDS011;38790;51.964;5.924;2022-07-09T00:46:00;16.63;;;7.25;;
33076;SDS011;38790;51.964;5.924;2022-07-09T00:48:26;16.30;;;8.30;;
33076;SDS011;38790;51.964;5.924;2022-07-09T00:50:52;12.68;;;8.13;;
33076;SDS011;38790;51.964;5.924;2022-07-09T00:53:23;11.43;;;7.20;;
33076;SDS011;38790;51.964;5.924;2022-07-09T00:55:50;11.85;;;6.95;;
33076;SDS011;38790;51.964;5.924;2022-07-09T00:58:17;13.23;;;8.20;;
33076;SDS011;38790;51.964;5.924;2022-07-09T01:00:44;12.80;;;7.90;;
33076;SDS011;38790;51.964;5.924;2022-07-09T01:03:10;13.88;;;8.43;;
33076;SDS011;38790;51.964;5.924;2022-07-09T01:05:36;15.77;;;8.40;;
33076;SDS011;38790;51.964;5.924;2022-07-09T01:08:03;14.05;;;8.15;;
33076;SDS011;38790;51.964;5.924;2022-07-09T01:10:31;11.73;;;7.72;;
33076;SDS011;38790;51.964;5.924;2022-07-09T01:12:58;12.45;;;8.15;;
33076;SDS011;38790;51.964;5.924;2022-07-09T01:15:25;12.27;;;8.88;;
33076;SDS011;38790;51.964;5.924;2022-07-09T01:17:51;12.77;;;8.70;;
33076;SDS011;38790;51.964;5.924;2022-07-09T01:20:24;16.08;;;8.77;;
33076;SDS011;38790;51.964;5.924;2022-07-09T01:22:51;12.68;;;8.82;;
33076;SDS011;38790;51.964;5.924;2022-07-09T01:25:18;17.70;;;10.65;;
33076;SDS011;38790;51.964;5.924;2022-07-09T01:27:48;27.20;;;22.20;;
33076;SDS011;38790;51.964;5.924;2022-07-09T01:30:24;32.55;;;27.92;;
33076;SDS011;38790;51.964;5.924;2022-07-09T01:32:51;39.35;;;32.90;;
33076;SDS011;38790;51.964;5.924;2022-07-09T01:35:18;47.00;;;37.15;;
33076;SDS011;38790;51.964;5.924;2022-07-09T01:37:45;53.47;;;43.00;;
33076;SDS011;38790;51.964;5.924;2022-07-09T01:40:11;51.88;;;42.90;;
33076;SDS011;38790;51.964;5.924;2022-07-09T01:42:38;40.97;;;31.90;;
33076;SDS011;38790;51.964;5.924;2022-07-09T01:45:04;23.58;;;18.13;;
33076;SDS011;38790;51.964;5.924;2022-07-09T01:47:31;18.67;;;13.90;;
33076;SDS011;38790;51.964;5.924;2022-07-09T01:49:57;15.88;;;11.43;;
33076;SDS011;38790;51.964;5.924;2022-07-09T01:52:24;14.88;;;10.77;;
33076;SDS011;38790;51.964;5.924;2022-07-09T01:54:50;15.68;;;9.07;;
33076;SDS011;38790;51.964;5.924;2022-07-09T01:57:17;11.18;;;8.95;;
33076;SDS011;38790;51.964;5.924;2022-07-09T01:59:43;13.60;;;8.80;;
33076;SDS011;38790;51.964;5.924;2022-07-09T02:02:09;16.00;;;10.50;;
33076;SDS011;38790;51.964;5.924;2022-07-09T02:04:35;18.15;;;11.18;;
33076;SDS011;38790;51.964;5.924;2022-07-09T02:07:01;20.58;;;9.98;;
33076;SDS011;38790;51.964;5.924;2022-07-09T02:09:27;11.55;;;8.60;;
33076;SDS011;38790;51.964;5.924;2022-07-09T02:11:53;12.32;;;8.75;;
33076;SDS011;38790;51.964;5.924;2022-07-09T02:14:19;9.45;;;8.27;;
33076;SDS011;38790;51.964;5.924;2022-07-09T02:16:46;10.60;;;7.95;;
33076;SDS011;38790;51.964;5.924;2022-07-09T02:19:12;16.27;;;8.48;;
33076;SDS011;38790;51.964;5.924;2022-07-09T02:21:38;13.00;;;8.40;;
33076;SDS011;38790;51.964;5.924;2022-07-09T02:24:04;13.38;;;8.52;;
33076;SDS011;38790;51.964;5.924;2022-07-09T02:26:30;17.92;;;8.73;;
33076;SDS011;38790;51.964;5.924;2022-07-09T02:41:47;15.07;;;8.68;;
33076;SDS011;38790;51.964;5.924;2022-07-09T02:44:13;11.93;;;8.43;;
33076;SDS011;38790;51.964;5.924;2022-07-09T02:46:39;17.83;;;8.18;;
33076;SDS011;38790;51.964;5.924;2022-07-09T02:49:05;15.20;;;8.27;;
33076;SDS011;38790;51.964;5.924;2022-07-09T02:51:32;16.48;;;8.95;;
33076;SDS011;38790;51.964;5.924;2022-07-09T02:53:58;13.18;;;9.07;;
33076;SDS011;38790;51.964;5.924;2022-07-09T02:56:24;14.38;;;9.23;;
33076;SDS011;38790;51.964;5.924;2022-07-09T02:58:50;16.92;;;9.38;;
33076;SDS011;38790;51.964;5.924;2022-07-09T03:01:16;12.75;;;8.90;;
33076;SDS011;38790;51.964;5.924;2022-07-09T03:03:42;14.93;;;9.15;;
33076;SDS011;38790;51.964;5.924;2022-07-09T03:06:08;11.52;;;8.77;;
33076;SDS011;38790;51.964;5.924;2022-07-09T03:08:34;16.13;;;9.23;;
33076;SDS011;38790;51.964;5.924;2022-07-09T03:11:00;14.35;;;9.50;;
33076;SDS011;38790;51.964;5.924;2022-07-09T03:13:26;19.23;;;10.32;;
33076;SDS011;38790;51.964;5.924;2022-07-09T03:15:52;14.80;;;9.02;;
33076;SDS011;38790;51.964;5.924;2022-07-09T03:18:19;16.90;;;9.18;;
33076;SDS011;38790;51.964;5.924;2022-07-09T03:20:45;16.90;;;8.88;;
33076;SDS011;38790;51.964;5.924;2022-07-09T03:23:12;12.68;;;8.65;;
33076;SDS011;38790;51.964;5.924;2022-07-09T03:25:39;14.10;;;9.05;;
33076;SDS011;38790;51.964;5.924;2022-07-09T03:28:05;14.07;;;8.85;;
33076;SDS011;38790;51.964;5.924;2022-07-09T03:30:31;12.07;;;8.88;;
33076;SDS011;38790;51.964;5.924;2022-07-09T03:32:57;16.30;;;9.98;;
33076;SDS011;38790;51.964;5.924;2022-07-09T03:35:23;14.02;;;9.13;;
33076;SDS011;38790;51.964;5.924;2022-07-09T03:37:49;15.88;;;8.80;;
33076;SDS011;38790;51.964;5.924;2022-07-09T03:40:16;11.80;;;8.75;;
33076;SDS011;38790;51.964;5.924;2022-07-09T03:42:42;11.95;;;8.52;;
33076;SDS011;38790;51.964;5.924;2022-07-09T03:45:08;13.55;;;8.68;;
33076;SDS011;38790;51.964;5.924;2022-07-09T03:47:34;19.10;;;9.60;;
33076;SDS011;38790;51.964;5.924;2022-07-09T03:50:00;19.05;;;9.88;;
33076;SDS011;38790;51.964;5.924;2022-07-09T03:52:26;12.20;;;9.15;;
33076;SDS011;38790;51.964;5.924;2022-07-09T03:54:53;11.25;;;8.88;;
33076;SDS011;38790;51.964;5.924;2022-07-09T03:57:19;15.57;;;10.18;;
33076;SDS011;38790;51.964;5.924;2022-07-09T03:59:45;14.07;;;10.25;;
33076;SDS011;38790;51.964;5.924;2022-07-09T04:02:11;15.80;;;10.48;;
33076;SDS011;38790;51.964;5.924;2022-07-09T04:04:37;14.98;;;10.32;;
33076;SDS011;38790;51.964;5.924;2022-07-09T04:07:03;15.02;;;9.60;;
33076;SDS011;38790;51.964;5.924;2022-07-09T04:09:30;14.48;;;9.88;;
33076;SDS011;38790;51.964;5.924;2022-07-09T04:11:56;17.52;;;10.65;;
33076;SDS011;38790;51.964;5.924;2022-07-09T04:14:22;15.07;;;10.43;;
33076;SDS011;38790;51.964;5.924;2022-07-09T04:16:48;15.35;;;10.73;;
33076;SDS011;38790;51.964;5.924;2022-07-09T04:19:14;15.88;;;9.57;;
33076;SDS011;38790;51.964;5.924;2022-07-09T04:21:40;15.82;;;10.13;;
33076;SDS011;38790;51.964;5.924;2022-07-09T04:24:07;16.38;;;9.82;;
33076;SDS011;38790;51.964;5.924;2022-07-09T04:26:33;13.27;;;10.15;;
33076;SDS011;38790;51.964;5.924;2022-07-09T04:28:59;18.10;;;10.98;;
33076;SDS011;38790;51.964;5.924;2022-07-09T04:31:25;13.05;;;8.88;;
33076;SDS011;38790;51.964;5.924;2022-07-09T04:33:51;15.48;;;10.02;;
33076;SDS011;38790;51.964;5.924;2022-07-09T04:36:17;20.40;;;11.20;;
33076;SDS011;38790;51.964;5.924;2022-07-09T04:38:43;14.25;;;10.68;;
33076;SDS011;38790;51.964;5.924;2022-07-09T04:41:09;20.25;;;11.77;;
33076;SDS011;38790;51.964;5.924;2022-07-09T04:43:35;18.92;;;12.43;;
33076;SDS011;38790;51.964;5.924;2022-07-09T04:46:01;13.52;;;11.77;;
33076;SDS011;38790;51.964;5.924;2022-07-09T04:48:27;17.17;;;11.52;;
33076;SDS011;38790;51.964;5.924;2022-07-09T04:50:54;17.35;;;12.43;;
33076;SDS011;38790;51.964;5.924;2022-07-09T04:53:20;19.30;;;13.30;;
33076;SDS011;38790;51.964;5.924;2022-07-09T04:55:46;17.83;;;11.90;;
33076;SDS011;38790;51.964;5.924;2022-07-09T04:58:12;18.83;;;13.52;;
33076;SDS011;38790;51.964;5.924;2022-07-09T05:00:38;17.92;;;12.07;;
33076;SDS011;38790;51.964;5.924;2022-07-09T05:03:04;23.15;;;12.25;;
33076;SDS011;38790;51.964;5.924;2022-07-09T05:05:30;20.95;;;12.05;;
33076;SDS011;38790;51.964;5.924;2022-07-09T05:07:57;19.13;;;12.82;;
33076;SDS011;38790;51.964;5.924;2022-07-09T05:10:23;24.67;;;13.30;;
33076;SDS011;38790;51.964;5.924;2022-07-09T05:12:49;20.45;;;12.50;;
33076;SDS011;38790;51.964;5.924;2022-07-09T05:15:16;20.15;;;13.23;;
33076;SDS011;38790;51.964;5.924;2022-07-09T05:17:42;16.83;;;11.80;;
33076;SDS011;38790;51.964;5.924;2022-07-09T05:20:09;17.98;;;11.88;;
33076;SDS011;38790;51.964;5.924;2022-07-09T05:22:36;15.45;;;12.07;;
33076;SDS011;38790;51.964;5.924;2022-07-09T05:25:04;20.42;;;12.20;;
33076;SDS011;38790;51.964;5.924;2022-07-09T05:27:31;20.63;;;12.98;;
33076;SDS011;38790;51.964;5.924;2022-07-09T05:29:57;16.73;;;11.88;;
33076;SDS011;38790;51.964;5.924;2022-07-09T05:32:24;20.33;;;13.10;;
33076;SDS011;38790;51.964;5.924;2022-07-09T05:34:50;18.55;;;12.68;;
33076;SDS011;38790;51.964;5.924;2022-07-09T05:37:16;17.85;;;11.48;;
33076;SDS011;38790;51.964;5.924;2022-07-09T05:39:42;17.55;;;11.30;;
33076;SDS011;38790;51.964;5.924;2022-07-09T05:42:09;15.90;;;11.48;;
33076;SDS011;38790;51.964;5.924;2022-07-09T05:44:35;18.13;;;11.50;;
33076;SDS011;38790;51.964;5.924;2022-07-09T05:47:01;18.17;;;11.65;;
33076;SDS011;38790;51.964;5.924;2022-07-09T05:49:28;14.60;;;10.98;;
33076;SDS011;38790;51.964;5.924;2022-07-09T05:51:54;15.63;;;10.77;;
33076;SDS011;38790;51.964;5.924;2022-07-09T05:54:20;17.17;;;10.75;;
33076;SDS011;38790;51.964;5.924;2022-07-09T05:56:46;18.73;;;11.18;;
33076;SDS011;38790;51.964;5.924;2022-07-09T05:59:12;18.02;;;10.05;;
33076;SDS011;38790;51.964;5.924;2022-07-09T06:01:38;13.55;;;9.75;;
33076;SDS011;38790;51.964;5.924;2022-07-09T06:04:05;13.90;;;9.43;;
33076;SDS011;38790;51.964;5.924;2022-07-09T06:06:33;15.02;;;8.95;;
33076;SDS011;38790;51.964;5.924;2022-07-09T06:08:59;15.40;;;9.77;;
33076;SDS011;38790;51.964;5.924;2022-07-09T06:11:25;15.82;;;10.40;;
33076;SDS011;38790;51.964;5.924;2022-07-09T06:13:52;19.33;;;10.02;;
33076;SDS011;38790;51.964;5.924;2022-07-09T06:16:18;18.85;;;10.65;;
33076;SDS011;38790;51.964;5.924;2022-07-09T06:18:44;16.42;;;9.98;;
33076;SDS011;38790;51.964;5.924;2022-07-09T06:21:10;18.00;;;10.88;;
33076;SDS011;38790;51.964;5.924;2022-07-09T06:23:36;18.80;;;10.13;;
33076;SDS011;38790;51.964;5.924;2022-07-09T06:26:02;17.83;;;9.73;;
33076;SDS011;38790;51.964;5.924;2022-07-09T06:28:28;15.32;;;10.27;;
33076;SDS011;38790;51.964;5.924;2022-07-09T06:30:54;19.35;;;9.57;;
33076;SDS011;38790;51.964;5.924;2022-07-09T06:33:20;16.08;;;8.73;;
33076;SDS011;38790;51.964;5.924;2022-07-09T06:35:47;10.10;;;7.38;;
33076;SDS011;38790;51.964;5.924;2022-07-09T06:38:13;14.32;;;8.50;;
33076;SDS011;38790;51.964;5.924;2022-07-09T06:40:39;17.92;;;8.07;;
33076;SDS011;38790;51.964;5.924;2022-07-09T06:43:05;14.90;;;8.52;;
33076;SDS011;38790;51.964;5.924;2022-07-09T06:45:32;14.70;;;8.70;;
33076;SDS011;38790;51.964;5.924;2022-07-09T06:47:58;16.58;;;8.07;;
33076;SDS011;38790;51.964;5.924;2022-07-09T06:50:24;9.50;;;7.75;;
33076;SDS011;38790;51.964;5.924;2022-07-09T06:52:50;12.05;;;8.18;;
33076;SDS011;38790;51.964;5.924;2022-07-09T06:55:16;10.80;;;8.02;;
33076;SDS011;38790;51.964;5.924;2022-07-09T06:57:42;13.32;;;7.38;;
33076;SDS011;38790;51.964;5.924;2022-07-09T07:00:09;15.48;;;8.30;;
33076;SDS011;38790;51.964;5.924;2022-07-09T07:02:35;14.25;;;7.40;;
33076;SDS011;38790;51.964;5.924;2022-07-09T07:05:01;8.55;;;6.40;;
33076;SDS011;38790;51.964;5.924;2022-07-09T07:07:28;9.98;;;6.72;;
33076;SDS011;38790;51.964;5.924;2022-07-09T07:09:54;13.95;;;7.00;;
33076;SDS011;38790;51.964;5.924;2022-07-09T07:12:20;12.88;;;5.65;;
33076;SDS011;38790;51.964;5.924;2022-07-09T07:14:46;12.48;;;7.25;;
33076;SDS011;38790;51.964;5.924;2022-07-09T07:17:12;14.02;;;6.60;;
33076;SDS011;38790;51.964;5.924;2022-07-09T07:19:38;7.65;;;4.80;;
33076;SDS011;38790;51.964;5.924;2022-07-09T07:22:05;10.57;;;5.78;;
33076;SDS011;38790;51.964;5.924;2022-07-09T07:24:31;10.65;;;5.13;;
33076;SDS011;38790;51.964;5.924;2022-07-09T07:26:57;6.80;;;4.40;;
33076;SDS011;38790;51.964;5.924;2022-07-09T07:29:23;11.35;;;4.82;;
33076;SDS011;38790;51.964;5.924;2022-07-09T07:31:50;8.23;;;4.70;;
33076;SDS011;38790;51.964;5.924;2022-07-09T07:34:16;9.20;;;4.65;;
33076;SDS011;38790;51.964;5.924;2022-07-09T07:36:45;9.32;;;5.00;;
33076;SDS011;38790;51.964;5.924;2022-07-09T07:39:11;9.00;;;5.20;;
33076;SDS011;38790;51.964;5.924;2022-07-09T07:41:37;9.27;;;5.75;;
33076;SDS011;38790;51.964;5.924;2022-07-09T07:44:03;8.60;;;6.13;;
33076;SDS011;38790;51.964;5.924;2022-07-09T07:46:29;8.73;;;6.30;;
33076;SDS011;38790;51.964;5.924;2022-07-09T07:48:55;10.05;;;6.53;;
33076;SDS011;38790;51.964;5.924;2022-07-09T07:51:21;10.80;;;6.55;;
33076;SDS011;38790;51.964;5.924;2022-07-09T07:53:47;12.15;;;6.82;;
33076;SDS011;38790;51.964;5.924;2022-07-09T07:56:13;8.73;;;5.75;;
33076;SDS011;38790;51.964;5.924;2022-07-09T07:58:39;9.43;;;6.95;;
33076;SDS011;38790;51.964;5.924;2022-07-09T08:01:05;17.10;;;7.97;;
33076;SDS011;38790;51.964;5.924;2022-07-09T08:03:32;6.82;;;5.35;;
33076;SDS011;38790;51.964;5.924;2022-07-09T08:05:58;8.38;;;5.93;;
33076;SDS011;38790;51.964;5.924;2022-07-09T08:08:24;12.15;;;5.00;;
33076;SDS011;38790;51.964;5.924;2022-07-09T08:10:50;9.50;;;5.55;;
33076;SDS011;38790;51.964;5.924;2022-07-09T08:13:16;11.35;;;5.15;;
33076;SDS011;38790;51.964;5.924;2022-07-09T08:15:42;8.68;;;4.53;;
33076;SDS011;38790;51.964;5.924;2022-07-09T08:18:09;12.77;;;4.68;;
33076;SDS011;38790;51.964;5.924;2022-07-09T08:20:38;10.90;;;4.05;;
33076;SDS011;38790;51.964;5.924;2022-07-09T08:23:05;3.97;;;3.55;;
33076;SDS011;38790;51.964;5.924;2022-07-09T08:25:32;5.15;;;3.22;;
33076;SDS011;38790;51.964;5.924;2022-07-09T08:27:58;4.40;;;2.60;;
33076;SDS011;38790;51.964;5.924;2022-07-09T08:30:24;7.15;;;3.22;;
33076;SDS011;38790;51.964;5.924;2022-07-09T08:32:50;6.20;;;2.80;;
33076;SDS011;38790;51.964;5.924;2022-07-09T08:35:16;11.82;;;3.40;;
33076;SDS011;38790;51.964;5.924;2022-07-09T08:37:42;12.23;;;3.03;;
33076;SDS011;38790;51.964;5.924;2022-07-09T08:40:08;8.35;;;3.28;;
33076;SDS011;38790;51.964;5.924;2022-07-09T08:42:35;7.45;;;3.90;;
33076;SDS011;38790;51.964;5.924;2022-07-09T08:45:02;9.65;;;3.75;;
33076;SDS011;38790;51.964;5.924;2022-07-09T08:47:28;7.50;;;3.63;;
33076;SDS011;38790;51.964;5.924;2022-07-09T08:49:56;7.28;;;4.10;;
33076;SDS011;38790;51.964;5.924;2022-07-09T08:52:24;8.07;;;4.00;;
33076;SDS011;38790;51.964;5.924;2022-07-09T08:54:52;6.35;;;4.53;;
33076;SDS011;38790;51.964;5.924;2022-07-09T08:57:19;6.53;;;4.20;;
33076;SDS011;38790;51.964;5.924;2022-07-09T08:59:45;10.52;;;4.28;;
33076;SDS011;38790;51.964;5.924;2022-07-09T09:02:11;4.97;;;3.85;;
33076;SDS011;38790;51.964;5.924;2022-07-09T09:04:39;6.85;;;3.47;;
33076;SDS011;38790;51.964;5.924;2022-07-09T09:09:43;6.25;;;4.22;;
33076;SDS011;38790;51.964;5.924;2022-07-09T09:12:10;11.95;;;5.50;;
33076;SDS011;38790;51.964;5.924;2022-07-09T09:14:37;14.50;;;4.78;;
33076;SDS011;38790;51.964;5.924;2022-07-09T09:17:04;7.97;;;4.65;;
33076;SDS011;38790;51.964;5.924;2022-07-09T09:19:40;11.48;;;4.40;;
33076;SDS011;38790;51.964;5.924;2022-07-09T09:22:07;11.27;;;4.65;;
33076;SDS011;38790;51.964;5.924;2022-07-09T09:24:34;8.27;;;4.82;;
33076;SDS011;38790;51.964;5.924;2022-07-09T09:27:03;10.13;;;5.30;;
33076;SDS011;38790;51.964;5.924;2022-07-09T09:29:29;10.15;;;6.18;;
33076;SDS011;38790;51.964;5.924;2022-07-09T09:31:56;10.73;;;5.18;;
33076;SDS011;38790;51.964;5.924;2022-07-09T09:34:22;12.13;;;5.97;;
33076;SDS011;38790;51.964;5.924;2022-07-09T09:36:50;12.15;;;5.90;;
33076;SDS011;38790;51.964;5.924;2022-07-09T09:39:24;9.77;;;6.60;;
33076;SDS011;38790;51.964;5.924;2022-07-09T09:41:56;10.82;;;6.85;;
33076;SDS011;38790;51.964;5.924;2022-07-09T09:44:28;9.80;;;5.75;;
33076;SDS011;38790;51.964;5.924;2022-07-09T09:49:27;10.70;;;6.30;;
33076;SDS011;38790;51.964;5.924;2022-07-09T09:54:20;11.23;;;6.88;;
33076;SDS011;38790;51.964;5.924;2022-07-09T09:56:50;10.25;;;6.72;;
33076;SDS011;38790;51.964;5.924;2022-07-09T09:59:16;12.50;;;5.22;;
33076;SDS011;38790;51.964;5.924;2022-07-09T10:01:43;8.13;;;5.88;;
33076;SDS011;38790;51.964;5.924;2022-07-09T10:04:10;11.25;;;5.50;;
33076;SDS011;38790;51.964;5.924;2022-07-09T10:06:38;8.13;;;5.53;;
33076;SDS011;38790;51.964;5.924;2022-07-09T10:09:06;12.38;;;4.63;;
33076;SDS011;38790;51.964;5.924;2022-07-09T10:11:43;7.05;;;5.40;;
33076;SDS011;38790;51.964;5.924;2022-07-09T10:16:49;10.30;;;5.20;;
33076;SDS011;38790;51.964;5.924;2022-07-09T10:19:26;7.40;;;5.10;;
33076;SDS011;38790;51.964;5.924;2022-07-09T10:21:57;5.75;;;4.22;;
33076;SDS011;38790;51.964;5.924;2022-07-09T10:24:24;9.18;;;3.65;;
33076;SDS011;38790;51.964;5.924;2022-07-09T10:27:04;9.07;;;3.90;;
33076;SDS011;38790;51.964;5.924;2022-07-09T10:29:35;9.45;;;2.80;;
33076;SDS011;38790;51.964;5.924;2022-07-09T10:32:28;6.50;;;2.90;;
33076;SDS011;38790;51.964;5.924;2022-07-09T10:37:41;7.43;;;2.17;;
33076;SDS011;38790;51.964;5.924;2022-07-09T10:40:15;2.70;;;1.88;;
33076;SDS011;38790;51.964;5.924;2022-07-09T10:42:44;3.30;;;2.03;;
33076;SDS011;38790;51.964;5.924;2022-07-09T10:45:22;3.85;;;1.83;;
33076;SDS011;38790;51.964;5.924;2022-07-09T10:47:50;2.63;;;1.88;;
33076;SDS011;38790;51.964;5.924;2022-07-09T10:50:24;7.53;;;1.80;;
33076;SDS011;38790;51.964;5.924;2022-07-09T10:52:52;2.75;;;1.58;;
33076;SDS011;38790;51.964;5.924;2022-07-09T10:55:19;2.90;;;1.50;;
33076;SDS011;38790;51.964;5.924;2022-07-09T10:57:49;3.45;;;1.77;;
33076;SDS011;38790;51.964;5.924;2022-07-09T11:00:37;3.17;;;1.55;;
33076;SDS011;38790;51.964;5.924;2022-07-09T11:03:03;2.03;;;1.30;;
33076;SDS011;38790;51.964;5.924;2022-07-09T11:05:33;2.95;;;1.50;;
33076;SDS011;38790;51.964;5.924;2022-07-09T11:08:09;2.72;;;1.33;;
33076;SDS011;38790;51.964;5.924;2022-07-09T11:10:36;2.35;;;1.20;;
33076;SDS011;38790;51.964;5.924;2022-07-09T11:13:04;10.43;;;1.30;;
33076;SDS011;38790;51.964;5.924;2022-07-09T11:15:33;3.38;;;1.38;;
33076;SDS011;38790;51.964;5.924;2022-07-09T11:18:09;2.88;;;1.52;;
33076;SDS011;38790;51.964;5.924;2022-07-09T11:20:42;6.65;;;2.33;;
33076;SDS011;38790;51.964;5.924;2022-07-09T11:23:10;4.20;;;1.50;;
33076;SDS011;38790;51.964;5.924;2022-07-09T11:25:37;4.47;;;1.40;;
33076;SDS011;38790;51.964;5.924;2022-07-09T11:28:04;4.55;;;1.20;;
33076;SDS011;38790;51.964;5.924;2022-07-09T11:30:30;4.25;;;1.17;;
33076;SDS011;38790;51.964;5.924;2022-07-09T11:32:58;4.97;;;1.25;;
33076;SDS011;38790;51.964;5.924;2022-07-09T11:37:54;2.92;;;0.85;;
33076;SDS011;38790;51.964;5.924;2022-07-09T11:40:21;2.15;;;0.90;;
33076;SDS011;38790;51.964;5.924;2022-07-09T11:42:47;2.72;;;1.15;;
33076;SDS011;38790;51.964;5.924;2022-07-09T11:45:19;3.10;;;1.00;;
33076;SDS011;38790;51.964;5.924;2022-07-09T11:47:48;5.88;;;2.05;;
33076;SDS011;38790;51.964;5.924;2022-07-09T11:50:16;5.22;;;0.93;;
33076;SDS011;38790;51.964;5.924;2022-07-09T11:52:49;2.92;;;1.00;;
33076;SDS011;38790;51.964;5.924;2022-07-09T11:55:19;2.70;;;1.00;;
33076;SDS011;38790;51.964;5.924;2022-07-09T11:57:54;1.27;;;0.75;;
33076;SDS011;38790;51.964;5.924;2022-07-09T12:00:28;2.83;;;1.00;;
33076;SDS011;38790;51.964;5.924;2022-07-09T12:02:55;2.53;;;0.90;;
33076;SDS011;38790;51.964;5.924;2022-07-09T12:05:35;2.08;;;0.68;;
33076;SDS011;38790;51.964;5.924;2022-07-09T12:08:03;1.08;;;0.88;;
33076;SDS011;38790;51.964;5.924;2022-07-09T12:10:33;2.72;;;0.93;;
33076;SDS011;38790;51.964;5.924;2022-07-09T12:13:00;4.88;;;1.20;;
33076;SDS011;38790;51.964;5.924;2022-07-09T12:15:27;3.92;;;1.05;;
33076;SDS011;38790;51.964;5.924;2022-07-09T12:17:55;4.10;;;0.93;;
33076;SDS011;38790;51.964;5.924;2022-07-09T12:20:25;2.40;;;0.68;;
33076;SDS011;38790;51.964;5.924;2022-07-09T12:22:53;3.45;;;1.00;;
33076;SDS011;38790;51.964;5.924;2022-07-09T12:25:20;3.13;;;1.00;;
33076;SDS011;38790;51.964;5.924;2022-07-09T12:27:46;4.63;;;0.73;;
33076;SDS011;38790;51.964;5.924;2022-07-09T12:30:14;2.20;;;0.98;;
33076;SDS011;38790;51.964;5.924;2022-07-09T12:32:41;2.92;;;0.90;;
33076;SDS011;38790;51.964;5.924;2022-07-09T12:35:08;6.05;;;1.13;;
33076;SDS011;38790;51.964;5.924;2022-07-09T12:37:36;4.20;;;1.15;;
33076;SDS011;38790;51.964;5.924;2022-07-09T12:40:03;3.88;;;1.00;;
33076;SDS011;38790;51.964;5.924;2022-07-09T12:42:30;2.75;;;0.93;;
33076;SDS011;38790;51.964;5.924;2022-07-09T12:44:56;3.60;;;1.10;;
33076;SDS011;38790;51.964;5.924;2022-07-09T12:47:22;3.95;;;1.38;;
33076;SDS011;38790;51.964;5.924;2022-07-09T12:49:48;3.33;;;1.42;;
33076;SDS011;38790;51.964;5.924;2022-07-09T12:52:15;2.38;;;1.30;;
33076;SDS011;38790;51.964;5.924;2022-07-09T12:54:41;3.35;;;1.00;;
33076;SDS011;38790;51.964;5.924;2022-07-09T12:57:07;3.88;;;1.60;;
33076;SDS011;38790;51.964;5.924;2022-07-09T12:59:33;4.80;;;1.00;;
33076;SDS011;38790;51.964;5.924;2022-07-09T13:01:59;3.15;;;1.02;;
33076;SDS011;38790;51.964;5.924;2022-07-09T13:04:25;3.20;;;1.00;;
33076;SDS011;38790;51.964;5.924;2022-07-09T13:06:51;5.75;;;0.88;;
33076;SDS011;38790;51.964;5.924;2022-07-09T13:09:19;3.22;;;1.05;;
33076;SDS011;38790;51.964;5.924;2022-07-09T13:11:45;3.20;;;0.98;;
33076;SDS011;38790;51.964;5.924;2022-07-09T13:14:11;4.25;;;0.65;;
33076;SDS011;38790;51.964;5.924;2022-07-09T13:16:37;2.25;;;1.35;;
33076;SDS011;38790;51.964;5.924;2022-07-09T13:19:03;6.85;;;0.70;;
33076;SDS011;38790;51.964;5.924;2022-07-09T13:21:30;8.98;;;1.10;;
33076;SDS011;38790;51.964;5.924;2022-07-09T13:23:57;8.85;;;1.10;;
33076;SDS011;38790;51.964;5.924;2022-07-09T13:26:23;7.05;;;0.73;;
33076;SDS011;38790;51.964;5.924;2022-07-09T13:28:49;2.20;;;0.75;;
33076;SDS011;38790;51.964;5.924;2022-07-09T13:31:15;5.40;;;1.13;;
33076;SDS011;38790;51.964;5.924;2022-07-09T13:33:41;3.55;;;1.23;;
33076;SDS011;38790;51.964;5.924;2022-07-09T13:36:10;4.32;;;1.05;;
33076;SDS011;38790;51.964;5.924;2022-07-09T13:38:36;3.38;;;0.90;;
33076;SDS011;38790;51.964;5.924;2022-07-09T13:41:02;2.78;;;0.82;;
33076;SDS011;38790;51.964;5.924;2022-07-09T13:43:28;3.97;;;1.08;;
33076;SDS011;38790;51.964;5.924;2022-07-09T13:45:55;2.08;;;0.75;;
33076;SDS011;38790;51.964;5.924;2022-07-09T13:48:22;8.65;;;1.05;;
33076;SDS011;38790;51.964;5.924;2022-07-09T13:50:49;3.55;;;0.85;;
33076;SDS011;38790;51.964;5.924;2022-07-09T13:53:15;1.92;;;0.88;;
33076;SDS011;38790;51.964;5.924;2022-07-09T13:55:42;4.70;;;0.90;;
33076;SDS011;38790;51.964;5.924;2022-07-09T13:58:09;3.30;;;0.95;;
33076;SDS011;38790;51.964;5.924;2022-07-09T14:00:35;8.05;;;0.98;;
33076;SDS011;38790;51.964;5.924;2022-07-09T14:03:01;6.82;;;1.08;;
33076;SDS011;38790;51.964;5.924;2022-07-09T14:05:27;6.70;;;1.48;;
33076;SDS011;38790;51.964;5.924;2022-07-09T14:07:53;3.28;;;1.17;;
33076;SDS011;38790;51.964;5.924;2022-07-09T14:10:21;4.35;;;1.05;;
33076;SDS011;38790;51.964;5.924;2022-07-09T14:12:48;9.25;;;1.20;;
33076;SDS011;38790;51.964;5.924;2022-07-09T14:15:14;6.60;;;3.05;;
33076;SDS011;38790;51.964;5.924;2022-07-09T14:17:41;11.02;;;7.32;;
33076;SDS011;38790;51.964;5.924;2022-07-09T14:20:07;73.82;;;62.60;;
33076;SDS011;38790;51.964;5.924;2022-07-09T14:22:34;45.08;;;34.05;;
33076;SDS011;38790;51.964;5.924;2022-07-09T14:25:00;5.60;;;1.85;;
33076;SDS011;38790;51.964;5.924;2022-07-09T14:27:26;74.20;;;56.88;;
33076;SDS011;38790;51.964;5.924;2022-07-09T14:29:52;8.05;;;2.70;;
33076;SDS011;38790;51.964;5.924;2022-07-09T14:32:18;2.78;;;0.80;;
33076;SDS011;38790;51.964;5.924;2022-07-09T14:34:44;5.35;;;1.52;;
33076;SDS011;38790;51.964;5.924;2022-07-09T14:37:10;3.72;;;1.77;;
33076;SDS011;38790;51.964;5.924;2022-07-09T14:39:36;3.58;;;1.45;;
33076;SDS011;38790;51.964;5.924;2022-07-09T14:42:02;7.35;;;1.30;;
33076;SDS011;38790;51.964;5.924;2022-07-09T14:44:29;4.20;;;1.63;;
33076;SDS011;38790;51.964;5.924;2022-07-09T14:46:56;5.10;;;1.60;;
33076;SDS011;38790;51.964;5.924;2022-07-09T14:49:25;6.55;;;1.38;;
33076;SDS011;38790;51.964;5.924;2022-07-09T14:51:51;5.70;;;1.58;;
33076;SDS011;38790;51.964;5.924;2022-07-09T14:54:17;6.97;;;2.05;;
33076;SDS011;38790;51.964;5.924;2022-07-09T14:56:43;8.05;;;2.30;;
33076;SDS011;38790;51.964;5.924;2022-07-09T14:59:10;3.92;;;1.50;;
33076;SDS011;38790;51.964;5.924;2022-07-09T15:01:38;13.70;;;1.95;;
33076;SDS011;38790;51.964;5.924;2022-07-09T15:04:05;6.82;;;1.48;;
33076;SDS011;38790;51.964;5.924;2022-07-09T15:06:31;5.20;;;1.20;;